createdAt,value
2017-09-06T00:00:27.276Z,99.99
2017-09-06T00:01:07.862Z,99.99
2017-09-06T00:01:48.447Z,99.99
2017-09-06T00:02:29.032Z,99.99
2017-09-06T00:03:09.601Z,99.99
2017-09-06T00:03:50.200Z,99.99
2017-09-06T00:04:30.773Z,99.99
2017-09-06T00:05:11.339Z,99.99
2017-09-06T00:05:51.923Z,99.99
2017-09-06T00:06:32.509Z,99.99
2017-09-06T00:07:13.085Z,99.99
2017-09-06T00:07:53.674Z,99.99
2017-09-06T00:08:34.257Z,99.99
2017-09-06T00:09:14.833Z,99.99
2017-09-06T00:09:55.412Z,99.99
2017-09-06T00:10:35.993Z,99.99
2017-09-06T00:11:16.597Z,99.99
2017-09-06T00:11:57.170Z,99.99
2017-09-06T00:12:37.746Z,99.99
2017-09-06T00:13:18.322Z,99.99
2017-09-06T00:13:58.901Z,99.99
2017-09-06T00:14:39.478Z,99.99
2017-09-06T00:15:20.061Z,99.99
2017-09-06T00:16:00.643Z,99.99
2017-09-06T00:16:41.224Z,99.99
2017-09-06T00:17:21.821Z,99.99
2017-09-06T00:18:02.408Z,99.99
2017-09-06T00:18:42.986Z,99.99
2017-09-06T00:19:23.563Z,99.99
2017-09-06T00:20:04.147Z,99.99
2017-09-06T00:20:44.739Z,99.99
2017-09-06T00:21:25.322Z,99.99
2017-09-06T00:22:05.906Z,99.99
2017-09-06T00:22:46.484Z,99.99
2017-09-06T00:23:27.058Z,99.99
2017-09-06T00:24:07.647Z,99.99
2017-09-06T00:24:48.228Z,99.99
2017-09-06T00:25:28.812Z,99.99
2017-09-06T00:26:09.395Z,99.99
2017-09-06T00:26:49.981Z,99.99
2017-09-06T00:27:30.552Z,99.99
2017-09-06T00:28:11.140Z,99.99
2017-09-06T00:28:51.720Z,99.99
2017-09-06T00:29:32.303Z,99.99
2017-09-06T00:30:27.863Z,99.99
2017-09-06T00:31:08.437Z,99.99
2017-09-06T00:31:49.018Z,99.99
2017-09-06T00:32:29.589Z,99.99
2017-09-06T00:33:10.178Z,99.99
2017-09-06T00:33:50.765Z,99.99
2017-09-06T00:34:31.347Z,99.99
2017-09-06T00:35:11.916Z,99.99
2017-09-06T00:35:52.499Z,99.99
2017-09-06T00:36:33.081Z,99.99
2017-09-06T00:37:13.667Z,99.99
2017-09-06T00:37:54.243Z,99.99
2017-09-06T00:38:34.841Z,99.99
2017-09-06T00:39:15.413Z,99.99
2017-09-06T00:39:55.998Z,99.99
2017-09-06T00:40:36.569Z,99.99
2017-09-06T00:41:17.157Z,99.99
2017-09-06T00:41:57.734Z,99.99
2017-09-06T00:42:38.311Z,99.99
2017-09-06T00:43:18.896Z,99.99
2017-09-06T00:43:59.481Z,99.99
2017-09-06T00:44:40.056Z,99.99
2017-09-06T00:45:20.633Z,99.99
2017-09-06T00:46:01.215Z,99.99
2017-09-06T00:46:41.799Z,99.99
2017-09-06T00:47:22.376Z,99.99
2017-09-06T00:48:02.959Z,99.99
2017-09-06T00:48:43.538Z,99.99
2017-09-06T00:49:24.116Z,99.99
2017-09-06T00:50:04.699Z,99.99
2017-09-06T00:50:45.273Z,99.99
2017-09-06T00:51:25.868Z,99.99
2017-09-06T00:52:06.429Z,99.99
2017-09-06T00:53:59.069Z,99.99
2017-09-06T00:54:39.642Z,99.99
2017-09-06T00:55:20.225Z,99.99
2017-09-06T00:56:15.437Z,99.99
2017-09-06T00:56:56.016Z,99.99
2017-09-06T00:57:36.585Z,99.99
2017-09-06T00:58:17.163Z,99.99
2017-09-06T00:58:57.742Z,99.99
2017-09-06T00:59:38.327Z,99.99
2017-09-06T01:00:18.901Z,99.99
2017-09-06T01:00:59.480Z,99.99
2017-09-06T01:01:40.054Z,99.99
2017-09-06T01:02:20.629Z,99.99
2017-09-06T01:03:01.192Z,99.99
2017-09-06T01:03:41.766Z,99.99
2017-09-06T01:04:22.365Z,99.99
2017-09-06T01:05:02.937Z,99.99
2017-09-06T01:05:43.516Z,99.99
2017-09-06T01:06:24.103Z,99.99
2017-09-06T01:07:04.686Z,99.99
2017-09-06T01:07:45.268Z,99.99
2017-09-06T01:08:25.851Z,99.99
2017-09-06T01:09:06.428Z,99.99
2017-09-06T01:09:47.005Z,99.99
2017-09-06T01:10:27.589Z,99.99
2017-09-06T01:11:08.154Z,99.99
2017-09-06T01:11:48.737Z,99.99
2017-09-06T01:12:29.310Z,99.99
2017-09-06T01:13:09.886Z,99.99
2017-09-06T01:13:50.471Z,99.99
2017-09-06T01:14:31.054Z,99.99
2017-09-06T01:15:11.639Z,99.99
2017-09-06T01:15:52.213Z,99.99
2017-09-06T01:16:32.791Z,99.99
2017-09-06T01:17:13.365Z,99.99
2017-09-06T01:17:53.950Z,99.99
2017-09-06T01:18:34.520Z,99.99
2017-09-06T01:19:15.092Z,99.99
2017-09-06T01:19:55.692Z,99.99
2017-09-06T01:20:36.274Z,99.99
2017-09-06T01:22:49.137Z,99.99
2017-09-06T01:23:29.710Z,99.99
2017-09-06T01:24:10.302Z,99.99
2017-09-06T01:24:50.887Z,99.99
2017-09-06T01:25:31.470Z,99.99
2017-09-06T01:26:12.049Z,99.99
2017-09-06T01:28:30.009Z,99.99
2017-09-06T01:29:10.586Z,99.99
2017-09-06T01:29:51.140Z,99.99
2017-09-06T01:30:31.721Z,99.99
2017-09-06T01:31:12.287Z,99.99
2017-09-06T01:31:52.869Z,99.99
2017-09-06T01:32:33.454Z,99.99
2017-09-06T01:33:14.033Z,99.99
2017-09-06T01:33:54.612Z,99.99
2017-09-06T01:34:35.196Z,99.99
2017-09-06T01:35:15.767Z,99.99
2017-09-06T01:35:56.352Z,99.99
2017-09-06T01:36:36.924Z,99.99
2017-09-06T01:37:17.505Z,99.99
2017-09-06T01:37:58.078Z,99.99
2017-09-06T01:38:39.270Z,99.99
2017-09-06T01:39:19.847Z,99.99
2017-09-06T01:40:00.430Z,99.99
2017-09-06T01:40:41.014Z,99.99
2017-09-06T01:41:21.592Z,99.99
2017-09-06T01:42:02.170Z,99.99
2017-09-06T01:42:42.754Z,99.99
2017-09-06T01:43:23.326Z,99.99
2017-09-06T01:44:03.908Z,99.99
2017-09-06T01:44:44.474Z,99.99
2017-09-06T01:45:25.058Z,99.99
2017-09-06T01:46:05.642Z,99.99
2017-09-06T01:46:46.211Z,99.99
2017-09-06T01:47:26.791Z,99.99
2017-09-06T01:48:07.369Z,99.99
2017-09-06T01:48:47.953Z,99.99
2017-09-06T01:49:28.542Z,99.99
2017-09-06T01:50:09.119Z,99.99
2017-09-06T01:50:49.691Z,99.99
2017-09-06T01:51:30.270Z,99.99
2017-09-06T01:52:10.855Z,99.99
2017-09-06T01:52:51.427Z,99.99
2017-09-06T01:53:32.014Z,99.99
2017-09-06T01:54:12.597Z,99.99
2017-09-06T01:54:53.187Z,99.99
2017-09-06T01:55:33.763Z,99.99
2017-09-06T01:56:14.332Z,99.99
2017-09-06T01:56:54.914Z,99.99
2017-09-06T01:57:35.518Z,99.99
2017-09-06T01:58:16.085Z,99.99
2017-09-06T01:58:56.643Z,99.99
2017-09-06T01:59:37.216Z,99.99
2017-09-06T02:00:17.791Z,99.99
2017-09-06T02:00:58.362Z,99.99
2017-09-06T02:01:38.941Z,99.99
2017-09-06T02:02:19.514Z,99.99
2017-09-06T02:03:00.086Z,99.99
2017-09-06T02:03:40.664Z,99.99
2017-09-06T02:04:21.251Z,99.99
2017-09-06T02:05:01.825Z,99.99
2017-09-06T02:05:42.401Z,99.99
2017-09-06T02:06:22.975Z,99.99
2017-09-06T02:07:03.560Z,99.99
2017-09-06T02:07:44.135Z,99.99
2017-09-06T02:08:24.707Z,99.99
2017-09-06T02:09:05.281Z,99.99
2017-09-06T02:09:45.871Z,99.99
2017-09-06T02:10:26.454Z,99.99
2017-09-06T02:11:07.020Z,99.99
2017-09-06T02:11:47.607Z,99.99
2017-09-06T02:12:28.181Z,99.99
2017-09-06T02:13:08.773Z,99.99
2017-09-06T02:13:49.344Z,99.99
2017-09-06T02:14:29.928Z,99.99
2017-09-06T02:15:10.498Z,99.99
2017-09-06T02:15:51.075Z,99.99
2017-09-06T02:16:31.656Z,99.99
2017-09-06T02:17:12.243Z,99.99
2017-09-06T02:17:52.831Z,99.99
2017-09-06T02:18:33.410Z,99.99
2017-09-06T02:19:13.997Z,99.99
2017-09-06T02:19:54.582Z,99.99
2017-09-06T02:20:35.170Z,99.99
2017-09-06T02:21:15.751Z,99.99
2017-09-06T02:21:56.337Z,99.99
2017-09-06T02:22:36.925Z,99.99
2017-09-06T02:23:17.507Z,99.99
2017-09-06T02:23:58.092Z,99.99
2017-09-06T02:24:38.679Z,99.99
2017-09-06T02:25:19.244Z,99.99
2017-09-06T02:25:59.819Z,99.99
2017-09-06T02:26:40.391Z,99.99
2017-09-06T02:27:20.965Z,99.99
2017-09-06T02:28:01.547Z,99.99
2017-09-06T02:28:42.128Z,99.99
2017-09-06T02:29:22.702Z,99.99
2017-09-06T02:30:03.289Z,99.99
2017-09-06T02:30:43.839Z,99.99
2017-09-06T02:31:24.399Z,99.99
2017-09-06T02:32:04.975Z,99.99
2017-09-06T02:32:45.536Z,99.99
2017-09-06T02:33:26.112Z,99.99
2017-09-06T02:34:06.689Z,99.99
2017-09-06T02:34:47.267Z,99.99
2017-09-06T02:35:28.402Z,99.99
2017-09-06T02:36:08.988Z,99.99
2017-09-06T02:36:49.564Z,99.99
2017-09-06T02:37:30.142Z,99.99
2017-09-06T02:38:10.728Z,99.99
2017-09-06T02:38:51.282Z,99.99
2017-09-06T02:39:31.855Z,99.99
2017-09-06T02:40:12.404Z,99.99
2017-09-06T02:40:52.983Z,99.99
2017-09-06T02:41:33.550Z,99.99
2017-09-06T02:42:14.124Z,99.99
2017-09-06T02:42:54.702Z,99.99
2017-09-06T02:43:35.262Z,99.99
2017-09-06T02:44:15.857Z,99.99
2017-09-06T02:44:56.442Z,99.99
2017-09-06T02:45:37.021Z,99.99
2017-09-06T02:46:17.592Z,99.99
2017-09-06T02:46:58.155Z,99.99
2017-09-06T02:47:38.743Z,99.99
2017-09-06T02:48:19.315Z,99.99
2017-09-06T02:48:59.912Z,99.99
2017-09-06T02:49:40.517Z,99.99
2017-09-06T02:50:21.080Z,99.99
2017-09-06T02:51:01.665Z,99.99
2017-09-06T02:51:42.244Z,99.99
2017-09-06T02:52:22.824Z,99.99
2017-09-06T02:53:03.414Z,99.99
2017-09-06T02:53:44.003Z,99.99
2017-09-06T02:54:24.600Z,99.99
2017-09-06T02:55:05.178Z,99.99
2017-09-06T02:55:45.767Z,99.99
2017-09-06T02:56:26.320Z,99.99
2017-09-06T02:57:06.898Z,99.99
2017-09-06T02:57:49.127Z,99.99
2017-09-06T02:58:29.704Z,99.99
2017-09-06T02:59:10.302Z,99.99
2017-09-06T02:59:50.912Z,99.99
2017-09-06T03:00:31.494Z,99.99
2017-09-06T03:01:12.059Z,99.99
2017-09-06T03:01:52.642Z,99.99
2017-09-06T03:02:33.221Z,99.99
2017-09-06T03:03:13.808Z,99.99
2017-09-06T03:03:54.405Z,99.99
2017-09-06T03:04:34.990Z,99.99
2017-09-06T03:05:16.504Z,99.99
2017-09-06T03:05:57.089Z,99.99
2017-09-06T03:06:37.677Z,99.99
2017-09-06T03:07:18.261Z,99.99
2017-09-06T03:07:58.836Z,99.99
2017-09-06T03:08:39.422Z,99.99
2017-09-06T03:09:19.996Z,99.99
2017-09-06T03:10:00.578Z,99.99
2017-09-06T03:10:41.167Z,99.99
2017-09-06T03:11:21.748Z,99.99
2017-09-06T03:12:02.340Z,99.99
2017-09-06T03:12:42.951Z,99.99
2017-09-06T03:13:23.518Z,99.99
2017-09-06T03:14:04.092Z,99.99
2017-09-06T03:14:44.665Z,99.99
2017-09-06T03:15:25.382Z,99.99
2017-09-06T03:16:05.966Z,99.99
2017-09-06T03:16:46.539Z,99.99
2017-09-06T03:17:27.327Z,99.99
2017-09-06T03:18:08.077Z,99.99
2017-09-06T03:18:48.697Z,99.99
2017-09-06T03:19:29.298Z,99.99
2017-09-06T03:20:09.877Z,99.99
2017-09-06T03:20:50.523Z,99.99
2017-09-06T03:21:32.118Z,99.99
2017-09-06T03:22:12.844Z,99.99
2017-09-06T03:22:53.865Z,99.99
2017-09-06T03:23:45.730Z,99.99
2017-09-06T03:24:26.473Z,99.99
2017-09-06T03:25:07.263Z,99.99
2017-09-06T03:25:47.880Z,99.99
2017-09-06T03:26:28.559Z,99.99
2017-09-06T03:27:09.125Z,99.99
2017-09-06T03:27:49.845Z,99.99
2017-09-06T03:28:30.532Z,99.99
2017-09-06T03:29:11.161Z,99.99
2017-09-06T03:29:51.730Z,99.99
2017-09-06T03:30:32.327Z,99.99
2017-09-06T03:31:13.064Z,99.99
2017-09-06T03:31:53.694Z,99.99
2017-09-06T03:32:34.274Z,99.99
2017-09-06T03:33:14.899Z,99.99
2017-09-06T03:33:55.481Z,99.99
2017-09-06T03:34:36.066Z,99.99
2017-09-06T03:35:16.696Z,99.99
2017-09-06T03:35:57.290Z,99.99
2017-09-06T03:36:37.864Z,99.99
2017-09-06T03:37:18.446Z,99.99
2017-09-06T03:37:59.038Z,99.99
2017-09-06T03:38:39.651Z,99.99
2017-09-06T03:39:20.387Z,99.99
2017-09-06T03:40:01.054Z,99.99
2017-09-06T03:40:41.652Z,99.99
2017-09-06T03:41:22.278Z,99.99
2017-09-06T03:42:03.019Z,99.99
2017-09-06T03:42:43.806Z,99.99
2017-09-06T03:43:24.478Z,99.99
2017-09-06T03:44:05.083Z,99.99
2017-09-06T03:44:45.786Z,99.99
2017-09-06T03:45:26.400Z,99.99
2017-09-06T03:46:06.978Z,99.99
2017-09-06T03:46:47.702Z,99.99
2017-09-06T03:47:28.399Z,99.99
2017-09-06T03:48:08.984Z,99.99
2017-09-06T03:48:49.618Z,99.99
2017-09-06T03:49:30.274Z,99.99
2017-09-06T03:50:11.570Z,99.99
2017-09-06T03:50:52.090Z,99.99
2017-09-06T03:51:32.697Z,99.99
2017-09-06T03:52:13.280Z,99.99
2017-09-06T03:52:53.858Z,99.99
2017-09-06T03:53:34.438Z,99.99
2017-09-06T03:54:15.022Z,99.99
2017-09-06T03:54:55.604Z,99.99
2017-09-06T03:55:36.191Z,99.99
2017-09-06T03:56:16.771Z,99.99
2017-09-06T03:58:29.623Z,99.99
2017-09-06T03:59:10.209Z,99.99
2017-09-06T03:59:50.798Z,99.99
2017-09-06T04:00:31.368Z,99.99
2017-09-06T04:01:11.940Z,99.99
2017-09-06T04:01:52.522Z,99.99
2017-09-06T04:02:33.106Z,99.99
2017-09-06T04:03:13.689Z,99.99
2017-09-06T04:03:54.266Z,99.99
2017-09-06T04:04:34.843Z,99.99
2017-09-06T04:05:15.425Z,99.99
2017-09-06T04:05:56.033Z,99.99
2017-09-06T04:06:36.584Z,99.99
2017-09-06T04:07:17.157Z,99.99
2017-09-06T04:07:57.764Z,99.99
2017-09-06T04:08:38.307Z,99.99
2017-09-06T04:09:18.881Z,99.99
2017-09-06T04:09:59.461Z,99.99
2017-09-06T04:10:40.044Z,99.99
2017-09-06T04:11:20.626Z,99.99
2017-09-06T04:12:01.204Z,99.99
2017-09-06T04:12:41.782Z,99.99
2017-09-06T04:13:22.373Z,99.99
2017-09-06T04:14:02.950Z,99.99
2017-09-06T04:14:43.535Z,99.99
2017-09-06T04:15:24.115Z,99.99
2017-09-06T04:16:04.707Z,99.99
2017-09-06T04:16:45.286Z,99.99
2017-09-06T04:17:25.864Z,99.99
2017-09-06T04:18:06.435Z,99.99
2017-09-06T04:18:47.022Z,99.99
2017-09-06T04:19:27.598Z,99.99
2017-09-06T04:20:08.185Z,99.99
2017-09-06T04:20:48.755Z,99.99
2017-09-06T04:21:29.332Z,99.99
2017-09-06T04:22:09.922Z,99.99
2017-09-06T04:22:50.509Z,99.99
2017-09-06T04:23:31.108Z,99.99
2017-09-06T04:24:11.691Z,99.99
2017-09-06T04:24:52.260Z,99.99
2017-09-06T04:25:32.848Z,99.99
2017-09-06T04:26:13.431Z,99.99
2017-09-06T04:26:54.014Z,99.99
2017-09-06T04:27:34.606Z,99.99
2017-09-06T04:28:15.157Z,99.99
2017-09-06T04:28:55.744Z,99.99
2017-09-06T04:29:36.323Z,99.99
2017-09-06T04:30:16.898Z,99.99
2017-09-06T04:30:57.488Z,99.99
2017-09-06T04:31:38.072Z,99.99
2017-09-06T04:32:18.644Z,99.99
2017-09-06T04:32:59.224Z,99.99
2017-09-06T04:33:39.804Z,99.99
2017-09-06T04:34:20.385Z,99.99
2017-09-06T04:35:00.970Z,99.99
2017-09-06T04:35:41.553Z,99.99
2017-09-06T04:36:22.895Z,99.99
2017-09-06T04:37:03.478Z,99.99
2017-09-06T04:37:44.067Z,99.99
2017-09-06T04:38:24.660Z,99.99
2017-09-06T04:39:05.257Z,99.99
2017-09-06T04:39:45.844Z,99.99
2017-09-06T04:40:26.429Z,99.99
2017-09-06T04:41:08.012Z,99.99
2017-09-06T04:41:48.590Z,99.99
2017-09-06T04:42:29.169Z,99.99
2017-09-06T04:43:09.751Z,99.99
2017-09-06T04:43:50.333Z,99.99
2017-09-06T04:44:30.915Z,99.99
2017-09-06T04:45:11.491Z,99.99
2017-09-06T04:45:52.078Z,99.99
2017-09-06T04:46:32.666Z,99.99
2017-09-06T04:47:13.252Z,99.99
2017-09-06T04:47:53.836Z,99.99
2017-09-06T04:48:34.417Z,99.99
2017-09-06T04:49:15.002Z,99.99
2017-09-06T04:49:55.586Z,99.99
2017-09-06T04:50:36.175Z,99.99
2017-09-06T04:51:16.750Z,99.99
2017-09-06T04:51:57.320Z,99.99
2017-09-06T04:52:37.901Z,99.99
2017-09-06T04:53:18.480Z,99.99
2017-09-06T04:53:59.060Z,99.99
2017-09-06T04:54:39.642Z,99.99
2017-09-06T04:55:20.223Z,99.99
2017-09-06T04:56:00.803Z,99.99
2017-09-06T04:56:41.402Z,99.99
2017-09-06T04:57:21.970Z,99.99
2017-09-06T04:58:02.549Z,99.99
2017-09-06T04:58:44.121Z,99.99
2017-09-06T04:59:24.707Z,99.99
2017-09-06T05:00:05.294Z,99.99
2017-09-06T05:00:45.891Z,99.99
2017-09-06T05:01:26.464Z,99.99
2017-09-06T05:02:07.037Z,99.99
2017-09-06T05:02:47.612Z,99.99
2017-09-06T05:03:28.177Z,99.99
2017-09-06T05:04:08.759Z,99.99
2017-09-06T05:04:49.344Z,99.99
2017-09-06T05:05:29.930Z,99.99
2017-09-06T05:06:10.514Z,99.99
2017-09-06T05:06:51.091Z,99.99
2017-09-06T05:07:31.668Z,99.99
2017-09-06T05:08:12.240Z,99.99
2017-09-06T05:08:52.799Z,99.99
2017-09-06T05:09:33.390Z,99.99
2017-09-06T05:10:13.966Z,99.99
2017-09-06T05:10:55.410Z,99.99
2017-09-06T05:11:35.972Z,99.99
2017-09-06T05:12:16.559Z,99.99
2017-09-06T05:12:57.098Z,99.99
2017-09-06T05:13:52.289Z,99.99
2017-09-06T05:14:32.864Z,99.99
2017-09-06T05:15:13.445Z,99.99
2017-09-06T05:15:54.026Z,99.99
2017-09-06T05:16:34.601Z,99.99
2017-09-06T05:17:15.178Z,99.99
2017-09-06T05:17:55.767Z,99.99
2017-09-06T05:18:36.352Z,99.99
2017-09-06T05:19:16.939Z,99.99
2017-09-06T05:19:57.529Z,99.99
2017-09-06T05:20:38.103Z,99.99
2017-09-06T05:21:18.693Z,99.99
2017-09-06T05:21:59.268Z,99.99
2017-09-06T05:22:39.872Z,99.99
2017-09-06T05:23:20.454Z,99.99
2017-09-06T05:24:01.037Z,99.99
2017-09-06T05:24:41.625Z,99.99
2017-09-06T05:25:22.209Z,99.99
2017-09-06T05:26:17.792Z,99.99
2017-09-06T05:26:58.380Z,99.99
2017-09-06T05:27:38.956Z,99.99
2017-09-06T05:28:19.551Z,99.99
2017-09-06T05:29:00.104Z,99.99
2017-09-06T05:29:40.693Z,99.99
2017-09-06T05:30:21.270Z,99.99
2017-09-06T05:31:01.847Z,99.99
2017-09-06T05:31:42.436Z,99.99
2017-09-06T05:32:23.020Z,99.99
2017-09-06T05:33:03.602Z,99.99
2017-09-06T05:33:44.183Z,99.99
2017-09-06T05:34:24.771Z,99.99
2017-09-06T05:35:05.349Z,99.99
2017-09-06T05:35:45.935Z,99.99
2017-09-06T05:36:26.524Z,99.99
2017-09-06T05:37:07.094Z,99.99
2017-09-06T05:37:47.668Z,99.99
2017-09-06T05:38:28.245Z,99.99
2017-09-06T05:39:08.832Z,99.99
2017-09-06T05:39:49.404Z,99.99
2017-09-06T05:40:29.985Z,99.99
2017-09-06T05:41:10.569Z,99.99
2017-09-06T05:41:51.155Z,99.99
2017-09-06T05:42:31.735Z,99.99
2017-09-06T05:43:12.310Z,99.99
2017-09-06T05:43:52.894Z,99.99
2017-09-06T05:44:33.472Z,99.99
2017-09-06T05:45:14.046Z,99.99
2017-09-06T05:45:54.633Z,99.99
2017-09-06T05:46:35.205Z,99.99
2017-09-06T05:47:15.786Z,99.99
2017-09-06T05:47:56.368Z,99.99
2017-09-06T05:48:36.949Z,99.99
2017-09-06T05:49:17.527Z,99.99
2017-09-06T05:49:58.110Z,99.99
2017-09-06T05:50:38.689Z,99.35
2017-09-06T05:51:19.276Z,99.06
2017-09-06T05:51:59.845Z,98.68
2017-09-06T05:52:40.431Z,98.34
2017-09-06T05:53:21.018Z,97.52
2017-09-06T05:54:01.601Z,97.52
2017-09-06T05:54:42.168Z,97.62
2017-09-06T05:55:22.765Z,98
2017-09-06T05:56:03.340Z,98.53
2017-09-06T05:56:43.914Z,97.47
2017-09-06T05:57:24.500Z,97.09
2017-09-06T05:58:05.081Z,97.19
2017-09-06T05:58:45.667Z,97.19
2017-09-06T05:59:26.253Z,97.19
2017-09-06T06:00:06.836Z,97.09
2017-09-06T06:00:47.420Z,96.9
2017-09-06T06:01:28.006Z,95.75
2017-09-06T06:02:08.587Z,96.03
2017-09-06T06:02:49.164Z,96.8
2017-09-06T06:03:29.751Z,97.09
2017-09-06T06:04:10.320Z,96.32
2017-09-06T06:04:50.916Z,96.22
2017-09-06T06:05:31.489Z,96.51
2017-09-06T06:06:12.072Z,95.7
2017-09-06T06:06:52.654Z,95.02
2017-09-06T06:07:33.248Z,93.48
2017-09-06T06:09:51.211Z,92.85
2017-09-06T06:10:31.793Z,92.76
2017-09-06T06:11:12.376Z,91.89
2017-09-06T06:11:52.965Z,92.47
2017-09-06T06:12:33.541Z,91.89
2017-09-06T06:13:14.124Z,91.7
2017-09-06T06:13:54.709Z,92.18
2017-09-06T06:14:35.288Z,93.05
2017-09-06T06:15:15.868Z,93.24
2017-09-06T06:15:56.450Z,93.33
2017-09-06T06:16:37.026Z,92.95
2017-09-06T06:17:17.605Z,91.99
2017-09-06T06:17:58.185Z,92.85
2017-09-06T06:18:38.770Z,92.95
2017-09-06T06:19:19.349Z,91.7
2017-09-06T06:19:59.939Z,92.22
2017-09-06T06:20:40.520Z,91.75
2017-09-06T06:21:21.093Z,89.96
2017-09-06T06:22:01.675Z,87.88
2017-09-06T06:22:42.268Z,87.54
2017-09-06T06:23:22.850Z,86.73
2017-09-06T06:24:03.427Z,86.63
2017-09-06T06:24:44.021Z,86.1
2017-09-06T06:25:24.608Z,84.94
2017-09-06T06:26:05.191Z,84.94
2017-09-06T06:26:45.773Z,84.41
2017-09-06T06:27:26.359Z,83.63
2017-09-06T06:28:06.949Z,83.78
2017-09-06T06:28:47.532Z,84.27
2017-09-06T06:29:28.118Z,85.86
2017-09-06T06:30:08.709Z,85.86
2017-09-06T06:30:49.286Z,86.63
2017-09-06T06:31:29.860Z,86.44
2017-09-06T06:32:10.438Z,87.55
2017-09-06T06:32:51.107Z,88.04
2017-09-06T06:33:31.696Z,88.81
2017-09-06T06:34:12.288Z,89
2017-09-06T06:34:52.874Z,89.19
2017-09-06T06:35:34.291Z,88.85
2017-09-06T06:36:14.872Z,89.15
2017-09-06T06:36:55.451Z,88.95
2017-09-06T06:37:36.033Z,89.97
2017-09-06T06:38:16.616Z,90.64
2017-09-06T06:38:57.202Z,91.41
2017-09-06T06:39:37.778Z,91.7
2017-09-06T06:40:18.371Z,92.04
2017-09-06T06:40:58.956Z,92.33
2017-09-06T06:41:39.544Z,92.23
2017-09-06T06:42:20.130Z,93.29
2017-09-06T06:43:00.708Z,93
2017-09-06T06:43:41.297Z,93.77
2017-09-06T06:44:21.883Z,92.91
2017-09-06T06:45:02.465Z,93.63
2017-09-06T06:45:43.041Z,93.34
2017-09-06T06:46:23.618Z,93.91
2017-09-06T06:47:04.194Z,93.82
2017-09-06T06:47:44.774Z,93.44
2017-09-06T06:48:25.359Z,93.82
2017-09-06T06:49:05.946Z,94.21
2017-09-06T06:49:46.524Z,94.88
2017-09-06T06:50:27.110Z,95.36
2017-09-06T06:51:07.693Z,94.88
2017-09-06T06:51:48.274Z,94.78
2017-09-06T06:52:28.849Z,95.36
2017-09-06T06:53:09.432Z,95.45
2017-09-06T06:53:50.003Z,95.26
2017-09-06T06:54:30.589Z,95.07
2017-09-06T06:55:11.174Z,95.65
2017-09-06T06:55:51.747Z,96.94
2017-09-06T06:56:32.335Z,96.56
2017-09-06T06:57:12.928Z,97.24
2017-09-06T06:57:53.510Z,96.85
2017-09-06T06:58:34.089Z,97.42
2017-09-06T06:59:14.679Z,97.52
2017-09-06T06:59:55.265Z,97.91
2017-09-06T07:00:35.855Z,98.1
2017-09-06T07:01:16.427Z,98.86
2017-09-06T07:01:56.999Z,98.58
2017-09-06T07:02:37.581Z,98.39
2017-09-06T07:03:18.165Z,98.39
2017-09-06T07:03:58.751Z,98.68
2017-09-06T07:04:39.349Z,99.06
2017-09-06T07:05:19.913Z,99.44
2017-09-06T07:06:00.498Z,99.99
2017-09-06T07:06:41.083Z,99.99
2017-09-06T07:07:21.665Z,99.99
2017-09-06T07:08:02.279Z,99.99
2017-09-06T07:08:42.841Z,99.99
2017-09-06T07:09:23.420Z,99.99
2017-09-06T07:10:03.998Z,99.99
2017-09-06T07:10:44.580Z,99.99
2017-09-06T07:11:25.157Z,99.99
2017-09-06T07:12:05.725Z,99.99
2017-09-06T07:12:46.307Z,99.99
2017-09-06T07:13:26.890Z,99.99
2017-09-06T07:14:07.473Z,99.99
2017-09-06T07:14:48.061Z,99.99
2017-09-06T07:15:28.636Z,99.99
2017-09-06T07:16:09.213Z,99.99
2017-09-06T07:16:49.796Z,99.99
2017-09-06T07:17:30.377Z,99.99
2017-09-06T07:19:48.346Z,99.99
2017-09-06T07:20:28.923Z,99.99
2017-09-06T07:21:09.501Z,99.99
2017-09-06T07:21:50.083Z,99.99
2017-09-06T07:22:30.666Z,99.99
2017-09-06T07:24:23.252Z,99.99
2017-09-06T07:25:03.836Z,99.99
2017-09-06T07:25:44.421Z,99.99
2017-09-06T07:26:25.002Z,99.99
2017-09-06T07:27:05.588Z,99.99
2017-09-06T07:27:46.163Z,99.99
2017-09-06T07:28:26.731Z,99.99
2017-09-06T07:29:07.320Z,99.99
2017-09-06T07:29:47.899Z,99.99
2017-09-06T07:30:28.493Z,99.99
2017-09-06T07:31:09.076Z,99.99
2017-09-06T07:31:49.658Z,99.99
2017-09-06T07:32:30.239Z,99.99
2017-09-06T07:33:10.818Z,99.99
2017-09-06T07:33:51.398Z,99.99
2017-09-06T07:34:31.980Z,99.4
2017-09-06T07:35:12.561Z,98.58
2017-09-06T07:35:53.146Z,98.96
2017-09-06T07:36:33.722Z,97.62
2017-09-06T07:37:14.304Z,97.19
2017-09-06T07:38:09.492Z,96.99
2017-09-06T07:38:50.089Z,96.66
2017-09-06T07:39:30.657Z,96.27
2017-09-06T07:40:11.238Z,95.07
2017-09-06T07:40:51.821Z,94.01
2017-09-06T07:41:32.409Z,92.94
2017-09-06T07:42:12.998Z,93.52
2017-09-06T07:42:53.580Z,92.94
2017-09-06T07:43:34.162Z,92.37
2017-09-06T07:44:14.746Z,92.37
2017-09-06T07:44:55.333Z,93.33
2017-09-06T07:45:35.917Z,92.27
2017-09-06T07:46:16.507Z,92.18
2017-09-06T07:46:57.082Z,92.08
2017-09-06T07:47:37.667Z,92.13
2017-09-06T07:48:18.249Z,90.97
2017-09-06T07:48:58.841Z,90.24
2017-09-06T07:49:39.407Z,88.36
2017-09-06T07:50:19.993Z,87.63
2017-09-06T07:51:00.576Z,86.13
2017-09-06T07:51:41.160Z,84.63
2017-09-06T07:52:21.746Z,81.82
2017-09-06T07:53:02.335Z,82.25
2017-09-06T07:53:57.520Z,83.12
2017-09-06T07:54:38.095Z,82.64
2017-09-06T07:55:18.688Z,82.6
2017-09-06T07:55:59.269Z,83.18
2017-09-06T07:56:39.857Z,84.2
2017-09-06T07:57:20.443Z,84.54
2017-09-06T07:58:01.019Z,85.56
2017-09-06T07:58:41.610Z,87.3
2017-09-06T07:59:22.193Z,87.74
2017-09-06T08:00:02.774Z,89.18
2017-09-06T08:00:43.358Z,88.51
2017-09-06T08:01:23.933Z,88.51
2017-09-06T08:02:04.527Z,89.43
2017-09-06T08:02:45.115Z,89.62
2017-09-06T08:03:25.701Z,89.91
2017-09-06T08:04:06.273Z,90.3
2017-09-06T08:04:46.865Z,90.58
2017-09-06T08:05:27.450Z,90.68
2017-09-06T08:06:08.030Z,90.68
2017-09-06T08:06:48.620Z,90.39
2017-09-06T08:07:29.207Z,91.16
2017-09-06T08:08:09.795Z,90.97
2017-09-06T08:08:50.380Z,91.55
2017-09-06T08:09:30.958Z,91.74
2017-09-06T08:10:11.546Z,91.26
2017-09-06T08:10:52.132Z,92.32
2017-09-06T08:11:35.574Z,92.13
2017-09-06T08:12:16.155Z,91.64
2017-09-06T08:12:56.722Z,90.97
2017-09-06T08:13:37.315Z,90.88
2017-09-06T08:14:17.900Z,89.86
2017-09-06T08:14:58.488Z,89.47
2017-09-06T08:15:39.073Z,89.76
2017-09-06T08:16:19.648Z,88.51
2017-09-06T08:17:00.229Z,88.41
2017-09-06T08:17:40.806Z,88.02
2017-09-06T08:18:21.388Z,87.59
2017-09-06T08:19:01.973Z,86.76
2017-09-06T08:19:42.550Z,85.5
2017-09-06T08:20:37.807Z,83.75
2017-09-06T08:21:32.954Z,78.25
2017-09-06T08:22:13.534Z,72.97
2017-09-06T08:22:54.129Z,67.6
2017-09-06T08:23:34.705Z,63.02
2017-09-06T08:24:15.295Z,59.41
2017-09-06T08:24:55.869Z,57.59
2017-09-06T08:25:36.454Z,59.12
2017-09-06T08:26:17.040Z,60
2017-09-06T08:26:57.627Z,62.74
2017-09-06T08:27:38.215Z,63.55
2017-09-06T08:28:18.841Z,63.59
2017-09-06T08:28:59.389Z,63.78
2017-09-06T08:29:39.970Z,62.64
2017-09-06T08:30:20.557Z,63.03
2017-09-06T08:31:01.148Z,62.84
2017-09-06T08:31:41.742Z,64.26
2017-09-06T08:32:22.319Z,63.32
2017-09-06T08:33:02.912Z,63.13
2017-09-06T08:33:43.531Z,63.9
2017-09-06T08:34:24.082Z,63.29
2017-09-06T08:35:04.674Z,63.07
2017-09-06T08:35:45.263Z,64.78
2017-09-06T08:36:25.859Z,67.44
2017-09-06T08:37:06.452Z,68.76
2017-09-06T08:37:47.030Z,68.47
2017-09-06T08:38:27.630Z,68.57
2017-09-06T08:39:08.229Z,68.96
2017-09-06T08:39:48.816Z,70.37
2017-09-06T08:40:29.403Z,71.02
2017-09-06T08:41:09.992Z,72.05
2017-09-06T08:41:50.585Z,72.21
2017-09-06T08:42:31.169Z,73.37
2017-09-06T08:43:11.733Z,73.66
2017-09-06T08:43:52.333Z,73.57
2017-09-06T08:44:32.895Z,73.75
2017-09-06T08:45:13.485Z,74.15
2017-09-06T08:45:54.080Z,74.05
2017-09-06T08:46:34.670Z,74.43
2017-09-06T08:48:27.316Z,74.34
2017-09-06T08:49:07.908Z,74.79
2017-09-06T08:49:48.492Z,74.49
2017-09-06T08:50:29.085Z,74.59
2017-09-06T08:51:09.668Z,73.57
2017-09-06T08:51:50.242Z,72.73
2017-09-06T08:52:30.830Z,72.47
2017-09-06T08:53:11.404Z,70.96
2017-09-06T08:53:51.998Z,68.54
2017-09-06T08:54:32.589Z,68.18
2017-09-06T08:55:13.177Z,67.05
2017-09-06T08:55:53.771Z,66.6
2017-09-06T08:56:34.353Z,65.17
2017-09-06T08:57:14.935Z,65.82